OOCL Hamburg — VRZK9 — position and weather

sailwx.info

Track history (hours):
 
Tides and Currents Weather Stations Pressure Air Temp Water Temp Dewpoint Dewpoint Depression Visibility Wind Speed Wind Dir Waves Ship Positions

OOCL Hamburg

Last reported at 2017-Jun-16 02:20 UTC. Time now 2017-Jun-24 14:03 UTC.
Position N 31°23' E 032°23'.
Warning: this ship's position is 8 days out of date.

Length 323 m; beam 42.8 m; draft 14.5 m.

Type: Cargo ship. MMSI: 477702000.

Date/timePositionNaut miles runAvg speedWind from/ knotsBaromVisibWave heightAir tempDewpointWater temp
2017-Jun-16 02:20N 31°23' E 032°23'1 2.8
2017-Jun-16 02:00N 31°23' E 032°22'2 4.1
2017-Jun-16 01:30N 31°23' E 032°19'0 0.1
2017-Jun-15 23:50N 31°24' E 032°19'0 0.0
2017-Jun-15 23:30N 31°24' E 032°19'0 0.0
2017-Jun-15 23:00N 31°24' E 032°19'0 0.0
2017-Jun-15 22:30N 31°24' E 032°19'0 0.0
2017-Jun-15 21:58N 31°24' E 032°19'0 0.0
2017-Jun-15 21:30N 31°24' E 032°19'0 0.2
2017-Jun-15 21:00N 31°24' E 032°19'0 0.3
2017-Jun-15 20:30N 31°24' E 032°19'0 0.6
2017-Jun-15 20:00N 31°24' E 032°19'4 8.9
2017-Jun-15 19:30N 31°28' E 032°16'714.4
2017-Jun-15 19:00N 31°33' E 032°11'714.9
2017-Jun-15 18:30N 31°38' E 032°05'815.4
2017-Jun-15 18:00N 31°44' E 031°58'914.9
2017-Jun-15 17:25N 31°47' E 031°49'815.1
2017-Jun-15 16:52N 31°50' E 031°39'1315.1
2017-Jun-15 15:59N 31°54' E 031°24'715.2
2017-Jun-15 15:30N 31°56' E 031°16'1015.2
2017-Jun-15 14:52N 31°59' E 031°05'515.1
2017-Jun-15 14:30N 32°01' E 030°59'67215.2
2017-Jun-13 18:19N 35°29' E 018°11'515.2
2017-Jun-13 17:59N 35°30' E 018°05'715.5
2017-Jun-13 17:30N 35°32' E 017°57'815.7
2017-Jun-13 16:59N 35°35' E 017°47'6815.4
2017-Jun-13 12:36N 35°56' E 016°28'215.3
2017-Jun-13 12:30N 35°56' E 016°26'2414.7
2017-Jun-13 10:52N 36°04' E 015°58'514.6
2017-Jun-13 10:29N 36°05' E 015°51'714.5
2017-Jun-13 10:00N 36°07' E 015°43'714.7
2017-Jun-13 09:30N 36°09' E 015°34'714.7
2017-Jun-13 09:00N 36°12' E 015°25'815.0
2017-Jun-13 08:29N 36°14' E 015°16'715.4
2017-Jun-13 08:00N 36°17' E 015°07'815.7
2017-Jun-13 07:29N 36°19' E 014°58'715.6
2017-Jun-13 07:00N 36°22' E 014°49'815.5
2017-Jun-13 06:30N 36°24' E 014°40'715.4
2017-Jun-13 06:00N 36°26' E 014°31'815.4
2017-Jun-13 05:30N 36°29' E 014°22'815.3
2017-Jun-13 05:00N 36°31' E 014°13'815.4
2017-Jun-13 04:30N 36°34' E 014°04'815.5
2017-Jun-13 04:00N 36°36' E 013°55'815.5
2017-Jun-13 03:30N 36°38' E 013°45'815.6
2017-Jun-13 03:00N 36°41' E 013°36'815.4
2017-Jun-13 02:30N 36°43' E 013°27'815.1
2017-Jun-13 02:00N 36°46' E 013°18'714.8
2017-Jun-13 01:30N 36°48' E 013°09'815.0
2017-Jun-13 01:00N 36°50' E 013°00'814.9
2017-Jun-13 00:30N 36°52' E 012°51'715.1
2017-Jun-13 00:00N 36°55' E 012°42'815.5
2017-Jun-12 23:30N 36°57' E 012°33'815.5
2017-Jun-12 23:00N 36°59' E 012°23'815.4
2017-Jun-12 22:29N 37°01' E 012°14'815.2
2017-Jun-12 21:57N 37°03' E 012°04'1115.4
2017-Jun-12 21:14N 37°07' E 011°51'415.2
2017-Jun-12 21:00N 37°08' E 011°47'815.2
2017-Jun-12 20:30N 37°11' E 011°38'715.0
2017-Jun-12 20:00N 37°14' E 011°30'714.7
2017-Jun-12 19:30N 37°17' E 011°21'714.7
2017-Jun-12 19:00N 37°20' E 011°13'714.9
2017-Jun-12 18:30N 37°24' E 011°05'815.2
2017-Jun-12 18:00N 37°27' E 010°56'815.4
2017-Jun-12 17:30N 37°28' E 010°46'1715.4
2017-Jun-12 16:24N 37°32' E 010°25'715.2
2017-Jun-12 15:58N 37°34' E 010°17'715.7
2017-Jun-12 15:30N 37°34' E 010°08'816.2
2017-Jun-12 14:59N 37°35' E 009°58'1615.8
2017-Jun-12 14:00N 37°36' E 009°38'815.7
2017-Jun-12 13:30N 37°38' E 009°28'815.8
2017-Jun-12 12:59N 37°40' E 009°19'815.8
2017-Jun-12 12:30N 37°41' E 009°09'815.8
2017-Jun-12 12:00N 37°42' E 008°59'815.8
2017-Jun-12 11:30N 37°42' E 008°49'915.9
2017-Jun-12 10:55N 37°41' E 008°37'1516.0
2017-Jun-12 09:59N 37°39' E 008°19'1116.0
2017-Jun-12 09:19N 37°37' E 008°05'515.9
2017-Jun-12 09:00N 37°36' E 007°59'917.9
2017-Jun-12 08:30N 37°35' E 007°48'2820.4
2017-Jun-12 07:08N 37°31' E 007°13'1220.4
2017-Jun-12 06:33N 37°29' E 006°58'319.5
2017-Jun-12 06:23N 37°29' E 006°54'716.9
2017-Jun-12 06:00N 37°28' E 006°46'815.7
2017-Jun-12 05:30N 37°27' E 006°36'815.6
2017-Jun-12 05:00N 37°26' E 006°27'815.5
2017-Jun-12 04:30N 37°24' E 006°17'815.8
2017-Jun-12 04:00N 37°23' E 006°07'815.9
2017-Jun-12 03:30N 37°22' E 005°57'815.9
2017-Jun-12 03:00N 37°21' E 005°47'815.9
2017-Jun-12 02:30N 37°20' E 005°37'815.8
2017-Jun-12 02:00N 37°18' E 005°28'815.9
2017-Jun-12 01:28N 37°17' E 005°17'815.8
2017-Jun-12 01:00N 37°16' E 005°08'816.0
2017-Jun-12 00:30N 37°15' E 004°58'815.8
2017-Jun-12 00:00N 37°13' E 004°48'815.6
2017-Jun-11 23:30N 37°12' E 004°39'815.6
2017-Jun-11 23:00N 37°11' E 004°29'815.5
2017-Jun-11 22:30N 37°10' E 004°19'815.5
2017-Jun-11 22:00N 37°09' E 004°10'815.1
2017-Jun-11 21:30N 37°08' E 004°00'715.0
2017-Jun-11 21:00N 37°07' E 003°51'815.2
2017-Jun-11 20:30N 37°06' E 003°42'815.2
2017-Jun-11 20:00N 37°05' E 003°32'815.6
2017-Jun-11 19:30N 37°04' E 003°22'815.6
2017-Jun-11 19:00N 37°02' E 003°13'816.1
2017-Jun-11 18:30N 37°01' E 003°03'816.1
2017-Jun-11 18:00N 36°59' E 002°53'915.9
2017-Jun-11 17:28N 36°58' E 002°43'715.8
2017-Jun-11 17:00N 36°57' E 002°34'815.7
2017-Jun-11 16:30N 36°56' E 002°24'815.4
2017-Jun-11 16:00N 36°55' E 002°14'815.3
2017-Jun-11 15:30N 36°54' E 002°05'8715.4
2017-Jun-11 09:52N 36°40' E 000°18'815.8
2017-Jun-11 09:21N 36°39' E 000°08'815.6
2017-Jun-11 08:50N 36°38' W 000°02'3515.2
2017-Jun-11 06:31N 36°32' W 000°46'215.5
2017-Jun-11 06:22N 36°32' W 000°49'915.5
2017-Jun-11 05:46N 36°31' W 001°00'415.4
2017-Jun-11 05:29N 36°30' W 001°05'715.5
2017-Jun-11 05:00N 36°29' W 001°14'815.5
2017-Jun-11 04:30N 36°28' W 001°24'3215.6
2017-Jun-11 02:28N 36°23' W 002°03'715.6
2017-Jun-11 02:00N 36°22' W 002°12'1015.4
2017-Jun-11 01:20N 36°20' W 002°25'815.2
2017-Jun-11 00:47N 36°19' W 002°35'11215.9
2017-Jun-10 17:43N 36°02' W 004°52'417.1
2017-Jun-10 17:30N 36°02' W 004°57'817.0
2017-Jun-10 17:00N 36°00' W 005°07'816.7
2017-Jun-10 16:30N 35°60' W 005°17'816.6
2017-Jun-10 16:00N 35°58' W 005°27'612.7
2017-Jun-10 15:31N 35°55' W 005°34'914.9
2017-Jun-10 14:56N 35°53' W 005°45'1414.8
2017-Jun-10 13:59N 35°53' W 006°02'714.0
2017-Jun-10 13:30N 35°54' W 006°10'6814.8
2017-Jun-10 08:55N 36°10' W 007°31'615.6
2017-Jun-10 08:30N 36°12' W 007°39'915.7
2017-Jun-10 07:55N 36°15' W 007°50'1815.8
2017-Jun-10 06:48N 36°19' W 008°11'515.8
2017-Jun-10 06:30N 36°21' W 008°17'815.7
2017-Jun-10 06:00N 36°23' W 008°26'815.8
2017-Jun-10 05:30N 36°25' W 008°35'815.5
2017-Jun-10 05:00N 36°27' W 008°45'815.5
2017-Jun-10 04:30N 36°29' W 008°54'815.3
2017-Jun-10 04:00N 36°31' W 009°03'815.5
2017-Jun-10 03:31N 36°33' W 009°12'815.3
2017-Jun-10 03:00N 36°37' W 009°21'815.9
2017-Jun-10 02:30N 36°42' W 009°28'815.7
2017-Jun-10 02:00N 36°49' W 009°33'816.0
2017-Jun-10 01:30N 36°56' W 009°35'815.9
2017-Jun-10 01:00N 37°04' W 009°38'816.2
2017-Jun-10 00:30N 37°12' W 009°41'816.0
2017-Jun-10 00:00N 37°20' W 009°44'5281.2
2017-Jun-10 00:00N 37°24' W 009°42'4 9.3 350 / 121016.910.8 19.017.418.0
2017-Jun-09 23:30N 37°27' W 009°46'816.2
2017-Jun-09 23:00N 37°35' W 009°47'816.1
2017-Jun-09 22:30N 37°43' W 009°49'815.9
2017-Jun-09 22:00N 37°51' W 009°51'815.9
2017-Jun-09 21:30N 37°59' W 009°54'816.0
2017-Jun-09 21:00N 38°07' W 009°56'816.0
2017-Jun-09 20:30N 38°14' W 009°58'816.1
2017-Jun-09 20:01N 38°22' W 010°00'816.1
2017-Jun-09 19:31N 38°30' W 010°02'815.8
2017-Jun-09 19:01N 38°38' W 010°05'815.9
2017-Jun-09 18:31N 38°46' W 010°06'816.3
2017-Jun-09 18:01N 38°54' W 010°06'816.4
2017-Jun-09 17:31N 39°02' W 010°06'816.4
2017-Jun-09 17:00N 39°10' W 010°06'815.8
2017-Jun-09 16:31N 39°18' W 010°06'815.9
2017-Jun-09 16:01N 39°26' W 010°06'815.7
2017-Jun-09 15:30N 39°34' W 010°06'815.7
2017-Jun-09 15:01N 39°42' W 010°06'915.7
2017-Jun-09 14:25N 39°51' W 010°06'1615.8
2017-Jun-09 13:24N 40°07' W 010°06'715.7
2017-Jun-09 12:59N 40°14' W 010°06'915.7
2017-Jun-09 12:24N 40°23' W 010°06'815.7
2017-Jun-09 11:53N 40°31' W 010°06'715.9
2017-Jun-09 11:25N 40°38' W 010°06'815.8
2017-Jun-09 10:54N 40°46' W 010°06'1015.8
2017-Jun-09 10:16N 40°57' W 010°06'16616.2
2017-Jun-09 00:00N 43°42' W 009°48'35314.8 330 / 111014.510.8 19.015.616.4
2017-Jun-08 00:10N 48°54' W 005°48'842.7
2017-Jun-08 00:00N 48°54' W 005°36'6258.3 230 / 271014.810.8 16.512.912.7
2017-Jun-07 23:58N 48°55' W 005°44'714.6
2017-Jun-07 23:31N 48°59' W 005°35'814.9
2017-Jun-07 23:00N 49°02' W 005°25'715.2
2017-Jun-07 22:30N 49°06' W 005°16'815.4
2017-Jun-07 22:01N 49°10' W 005°06'3114.7
2017-Jun-07 19:53N 49°26' W 004°24'1113.8
2017-Jun-07 19:06N 49°31' W 004°10'213.4
2017-Jun-07 18:56N 49°32' W 004°07'1712.8
2017-Jun-07 17:37N 49°41' W 003°44'312.5
2017-Jun-07 17:21N 49°42' W 003°40'412.3
2017-Jun-07 16:59N 49°44' W 003°33'612.3
2017-Jun-07 16:30N 49°48' W 003°26'612.6
2017-Jun-07 16:01N 49°51' W 003°18'713.1
2017-Jun-07 15:31N 49°55' W 003°10'713.6
2017-Jun-07 15:01N 49°58' W 003°00'1414.5
2017-Jun-07 14:00N 50°02' W 002°39'815.4
2017-Jun-07 13:30N 50°04' W 002°27'915.8
2017-Jun-07 12:56N 50°07' W 002°14'716.5
2017-Jun-07 12:30N 50°09' W 002°03'816.8
2017-Jun-07 12:00N 50°11' W 001°50'816.4
2017-Jun-07 11:30N 50°14' W 001°38'815.9
2017-Jun-07 11:00N 50°16' W 001°26'815.3
2017-Jun-07 10:30N 50°18' W 001°15'914.3
2017-Jun-07 09:54N 50°21' W 001°02'713.3
2017-Jun-07 09:22N 50°23' W 000°51'512.3
2017-Jun-07 08:59N 50°24' W 000°44'611.8
2017-Jun-07 08:30N 50°25' W 000°35'612.0
2017-Jun-07 08:00N 50°27' W 000°27'611.9
2017-Jun-07 07:30N 50°29' W 000°18'611.8
2017-Jun-07 07:00N 50°30' W 000°09'611.9
2017-Jun-07 06:30N 50°32' E 000°00'612.0
2017-Jun-07 06:00N 50°33' E 000°10'612.3
2017-Jun-07 05:30N 50°35' E 000°19'612.8
2017-Jun-07 05:00N 50°36' E 000°29'713.5
2017-Jun-07 04:30N 50°38' E 000°39'713.9
2017-Jun-07 04:00N 50°42' E 000°48'713.8
2017-Jun-07 03:30N 50°46' E 000°57'713.7
2017-Jun-07 03:00N 50°51' E 001°05'713.5
2017-Jun-07 02:30N 50°56' E 001°12'713.1
2017-Jun-07 02:00N 51°00' E 001°20'612.1
2017-Jun-07 01:30N 51°04' E 001°27'611.3
2017-Jun-07 01:00N 51°08' E 001°34'510.7
2017-Jun-07 00:30N 51°11' E 001°41'510.9
2017-Jun-07 00:00N 51°15' E 001°47'611.2
2017-Jun-06 23:30N 51°19' E 001°52'611.7
2017-Jun-06 23:01N 51°24' E 001°57'612.0
2017-Jun-06 22:30N 51°29' E 002°02'612.4
2017-Jun-06 22:00N 51°34' E 002°09'612.8
2017-Jun-06 21:30N 51°38' E 002°16'713.2
2017-Jun-06 21:00N 51°44' E 002°23'713.6
2017-Jun-06 20:30N 51°49' E 002°30'714.1
2017-Jun-06 19:59N 51°54' E 002°38'6312.8
2017-Jun-06 15:05N 52°44' E 003°39'110.8
2017-Jun-06 14:59N 52°45' E 003°40'510.6
2017-Jun-06 14:30N 52°49' E 003°46'1210.2
2017-Jun-06 13:20N 52°58' E 003°59'310.1
2017-Jun-06 13:01N 53°00' E 004°03'610.0
2017-Jun-06 12:27N 53°04' E 004°10'511.2
2017-Jun-06 11:58N 53°07' E 004°17'612.1
2017-Jun-06 11:27N 53°12' E 004°24'7313.6
2017-Jun-06 06:04N 53°48' E 006°11'114.2
2017-Jun-06 06:00N 53°48' E 006°12'714.0
2017-Jun-06 05:30N 53°50' E 006°24'1714.3
2017-Jun-06 04:18N 53°54' E 006°52'1615.1
2017-Jun-06 03:16N 53°58' E 007°18'415.5
2017-Jun-06 03:00N 53°59' E 007°25'815.4
2017-Jun-06 02:30N 53°59' E 007°38'  
Track history (hours):
 
Tides and Currents Weather Stations Pressure Air Temp Water Temp Dewpoint Dewpoint Depression Visibility Wind Speed Wind Dir Waves Ship Positions

OOCL Hamburg

Last reported at 2017-Jun-16 02:20 UTC. Time now 2017-Jun-24 14:03 UTC.
Position N 31°23' E 032°23'.
Warning: this ship's position is 8 days out of date.

Length 323 m; beam 42.8 m; draft 14.5 m.

Type: Cargo ship. MMSI: 477702000.

Date/timePositionNaut miles runAvg speedWind from/ knotsBaromVisibWave heightAir tempDewpointWater temp
2017-Jun-16 02:20N 31°23' E 032°23'1 2.8
2017-Jun-16 02:00N 31°23' E 032°22'2 4.1
2017-Jun-16 01:30N 31°23' E 032°19'0 0.1
2017-Jun-15 23:50N 31°24' E 032°19'0 0.0
2017-Jun-15 23:30N 31°24' E 032°19'0 0.0
2017-Jun-15 23:00N 31°24' E 032°19'0 0.0
2017-Jun-15 22:30N 31°24' E 032°19'0 0.0
2017-Jun-15 21:58N 31°24' E 032°19'0 0.0
2017-Jun-15 21:30N 31°24' E 032°19'0 0.2
2017-Jun-15 21:00N 31°24' E 032°19'0 0.3
2017-Jun-15 20:30N 31°24' E 032°19'0 0.6
2017-Jun-15 20:00N 31°24' E 032°19'4 8.9
2017-Jun-15 19:30N 31°28' E 032°16'714.4
2017-Jun-15 19:00N 31°33' E 032°11'714.9
2017-Jun-15 18:30N 31°38' E 032°05'815.4
2017-Jun-15 18:00N 31°44' E 031°58'914.9
2017-Jun-15 17:25N 31°47' E 031°49'815.1
2017-Jun-15 16:52N 31°50' E 031°39'1315.1
2017-Jun-15 15:59N 31°54' E 031°24'715.2
2017-Jun-15 15:30N 31°56' E 031°16'1015.2
2017-Jun-15 14:52N 31°59' E 031°05'515.1
2017-Jun-15 14:30N 32°01' E 030°59'67215.2
2017-Jun-13 18:19N 35°29' E 018°11'515.2
2017-Jun-13 17:59N 35°30' E 018°05'715.5
2017-Jun-13 17:30N 35°32' E 017°57'815.7
2017-Jun-13 16:59N 35°35' E 017°47'6815.4
2017-Jun-13 12:36N 35°56' E 016°28'215.3
2017-Jun-13 12:30N 35°56' E 016°26'2414.7
2017-Jun-13 10:52N 36°04' E 015°58'514.6
2017-Jun-13 10:29N 36°05' E 015°51'714.5
2017-Jun-13 10:00N 36°07' E 015°43'714.7
2017-Jun-13 09:30N 36°09' E 015°34'714.7
2017-Jun-13 09:00N 36°12' E 015°25'815.0
2017-Jun-13 08:29N 36°14' E 015°16'715.4
2017-Jun-13 08:00N 36°17' E 015°07'815.7
2017-Jun-13 07:29N 36°19' E 014°58'715.6
2017-Jun-13 07:00N 36°22' E 014°49'815.5
2017-Jun-13 06:30N 36°24' E 014°40'715.4
2017-Jun-13 06:00N 36°26' E 014°31'815.4
2017-Jun-13 05:30N 36°29' E 014°22'815.3
2017-Jun-13 05:00N 36°31' E 014°13'815.4
2017-Jun-13 04:30N 36°34' E 014°04'815.5
2017-Jun-13 04:00N 36°36' E 013°55'815.5
2017-Jun-13 03:30N 36°38' E 013°45'815.6
2017-Jun-13 03:00N 36°41' E 013°36'815.4
2017-Jun-13 02:30N 36°43' E 013°27'815.1
2017-Jun-13 02:00N 36°46' E 013°18'714.8
2017-Jun-13 01:30N 36°48' E 013°09'815.0
2017-Jun-13 01:00N 36°50' E 013°00'814.9
2017-Jun-13 00:30N 36°52' E 012°51'715.1
2017-Jun-13 00:00N 36°55' E 012°42'815.5
2017-Jun-12 23:30N 36°57' E 012°33'815.5
2017-Jun-12 23:00N 36°59' E 012°23'815.4
2017-Jun-12 22:29N 37°01' E 012°14'815.2
2017-Jun-12 21:57N 37°03' E 012°04'1115.4
2017-Jun-12 21:14N 37°07' E 011°51'415.2
2017-Jun-12 21:00N 37°08' E 011°47'815.2
2017-Jun-12 20:30N 37°11' E 011°38'715.0
2017-Jun-12 20:00N 37°14' E 011°30'714.7
2017-Jun-12 19:30N 37°17' E 011°21'714.7
2017-Jun-12 19:00N 37°20' E 011°13'714.9
2017-Jun-12 18:30N 37°24' E 011°05'815.2
2017-Jun-12 18:00N 37°27' E 010°56'815.4
2017-Jun-12 17:30N 37°28' E 010°46'1715.4
2017-Jun-12 16:24N 37°32' E 010°25'715.2
2017-Jun-12 15:58N 37°34' E 010°17'715.7
2017-Jun-12 15:30N 37°34' E 010°08'816.2
2017-Jun-12 14:59N 37°35' E 009°58'1615.8
2017-Jun-12 14:00N 37°36' E 009°38'815.7
2017-Jun-12 13:30N 37°38' E 009°28'815.8
2017-Jun-12 12:59N 37°40' E 009°19'815.8
2017-Jun-12 12:30N 37°41' E 009°09'815.8
2017-Jun-12 12:00N 37°42' E 008°59'815.8
2017-Jun-12 11:30N 37°42' E 008°49'915.9
2017-Jun-12 10:55N 37°41' E 008°37'1516.0
2017-Jun-12 09:59N 37°39' E 008°19'1116.0
2017-Jun-12 09:19N 37°37' E 008°05'515.9
2017-Jun-12 09:00N 37°36' E 007°59'917.9
2017-Jun-12 08:30N 37°35' E 007°48'2820.4
2017-Jun-12 07:08N 37°31' E 007°13'1220.4
2017-Jun-12 06:33N 37°29' E 006°58'319.5
2017-Jun-12 06:23N 37°29' E 006°54'716.9
2017-Jun-12 06:00N 37°28' E 006°46'815.7
2017-Jun-12 05:30N 37°27' E 006°36'815.6
2017-Jun-12 05:00N 37°26' E 006°27'815.5
2017-Jun-12 04:30N 37°24' E 006°17'815.8
2017-Jun-12 04:00N 37°23' E 006°07'815.9
2017-Jun-12 03:30N 37°22' E 005°57'815.9
2017-Jun-12 03:00N 37°21' E 005°47'815.9
2017-Jun-12 02:30N 37°20' E 005°37'815.8
2017-Jun-12 02:00N 37°18' E 005°28'815.9
2017-Jun-12 01:28N 37°17' E 005°17'815.8
2017-Jun-12 01:00N 37°16' E 005°08'816.0
2017-Jun-12 00:30N 37°15' E 004°58'815.8
2017-Jun-12 00:00N 37°13' E 004°48'815.6
2017-Jun-11 23:30N 37°12' E 004°39'815.6
2017-Jun-11 23:00N 37°11' E 004°29'815.5
2017-Jun-11 22:30N 37°10' E 004°19'815.5
2017-Jun-11 22:00N 37°09' E 004°10'815.1
2017-Jun-11 21:30N 37°08' E 004°00'715.0
2017-Jun-11 21:00N 37°07' E 003°51'815.2
2017-Jun-11 20:30N 37°06' E 003°42'815.2
2017-Jun-11 20:00N 37°05' E 003°32'815.6
2017-Jun-11 19:30N 37°04' E 003°22'815.6
2017-Jun-11 19:00N 37°02' E 003°13'816.1
2017-Jun-11 18:30N 37°01' E 003°03'816.1
2017-Jun-11 18:00N 36°59' E 002°53'915.9
2017-Jun-11 17:28N 36°58' E 002°43'715.8
2017-Jun-11 17:00N 36°57' E 002°34'815.7
2017-Jun-11 16:30N 36°56' E 002°24'815.4
2017-Jun-11 16:00N 36°55' E 002°14'815.3
2017-Jun-11 15:30N 36°54' E 002°05'8715.4
2017-Jun-11 09:52N 36°40' E 000°18'815.8
2017-Jun-11 09:21N 36°39' E 000°08'815.6
2017-Jun-11 08:50N 36°38' W 000°02'3515.2
2017-Jun-11 06:31N 36°32' W 000°46'215.5
2017-Jun-11 06:22N 36°32' W 000°49'915.5
2017-Jun-11 05:46N 36°31' W 001°00'415.4
2017-Jun-11 05:29N 36°30' W 001°05'715.5
2017-Jun-11 05:00N 36°29' W 001°14'815.5
2017-Jun-11 04:30N 36°28' W 001°24'3215.6
2017-Jun-11 02:28N 36°23' W 002°03'715.6
2017-Jun-11 02:00N 36°22' W 002°12'1015.4
2017-Jun-11 01:20N 36°20' W 002°25'815.2
2017-Jun-11 00:47N 36°19' W 002°35'11215.9
2017-Jun-10 17:43N 36°02' W 004°52'417.1
2017-Jun-10 17:30N 36°02' W 004°57'817.0
2017-Jun-10 17:00N 36°00' W 005°07'816.7
2017-Jun-10 16:30N 35°60' W 005°17'816.6
2017-Jun-10 16:00N 35°58' W 005°27'612.7
2017-Jun-10 15:31N 35°55' W 005°34'914.9
2017-Jun-10 14:56N 35°53' W 005°45'1414.8
2017-Jun-10 13:59N 35°53' W 006°02'714.0
2017-Jun-10 13:30N 35°54' W 006°10'6814.8
2017-Jun-10 08:55N 36°10' W 007°31'615.6
2017-Jun-10 08:30N 36°12' W 007°39'915.7
2017-Jun-10 07:55N 36°15' W 007°50'1815.8
2017-Jun-10 06:48N 36°19' W 008°11'515.8
2017-Jun-10 06:30N 36°21' W 008°17'815.7
2017-Jun-10 06:00N 36°23' W 008°26'815.8
2017-Jun-10 05:30N 36°25' W 008°35'815.5
2017-Jun-10 05:00N 36°27' W 008°45'815.5
2017-Jun-10 04:30N 36°29' W 008°54'815.3
2017-Jun-10 04:00N 36°31' W 009°03'815.5
2017-Jun-10 03:31N 36°33' W 009°12'815.3
2017-Jun-10 03:00N 36°37' W 009°21'815.9
2017-Jun-10 02:30N 36°42' W 009°28'815.7
2017-Jun-10 02:00N 36°49' W 009°33'816.0
2017-Jun-10 01:30N 36°56' W 009°35'815.9
2017-Jun-10 01:00N 37°04' W 009°38'816.2
2017-Jun-10 00:30N 37°12' W 009°41'816.0
2017-Jun-10 00:00N 37°20' W 009°44'5281.2
2017-Jun-10 00:00N 37°24' W 009°42'4 9.3 350 / 121016.910.8 19.017.418.0
2017-Jun-09 23:30N 37°27' W 009°46'816.2
2017-Jun-09 23:00N 37°35' W 009°47'816.1
2017-Jun-09 22:30N 37°43' W 009°49'815.9
2017-Jun-09 22:00N 37°51' W 009°51'815.9
2017-Jun-09 21:30N 37°59' W 009°54'816.0
2017-Jun-09 21:00N 38°07' W 009°56'816.0
2017-Jun-09 20:30N 38°14' W 009°58'816.1
2017-Jun-09 20:01N 38°22' W 010°00'816.1
2017-Jun-09 19:31N 38°30' W 010°02'815.8
2017-Jun-09 19:01N 38°38' W 010°05'815.9
2017-Jun-09 18:31N 38°46' W 010°06'816.3
2017-Jun-09 18:01N 38°54' W 010°06'816.4
2017-Jun-09 17:31N 39°02' W 010°06'816.4
2017-Jun-09 17:00N 39°10' W 010°06'815.8
2017-Jun-09 16:31N 39°18' W 010°06'815.9
2017-Jun-09 16:01N 39°26' W 010°06'815.7
2017-Jun-09 15:30N 39°34' W 010°06'815.7
2017-Jun-09 15:01N 39°42' W 010°06'915.7
2017-Jun-09 14:25N 39°51' W 010°06'1615.8
2017-Jun-09 13:24N 40°07' W 010°06'715.7
2017-Jun-09 12:59N 40°14' W 010°06'915.7
2017-Jun-09 12:24N 40°23' W 010°06'815.7
2017-Jun-09 11:53N 40°31' W 010°06'715.9
2017-Jun-09 11:25N 40°38' W 010°06'815.8
2017-Jun-09 10:54N 40°46' W 010°06'1015.8
2017-Jun-09 10:16N 40°57' W 010°06'16616.2
2017-Jun-09 00:00N 43°42' W 009°48'35314.8 330 / 111014.510.8 19.015.616.4
2017-Jun-08 00:10N 48°54' W 005°48'842.7
2017-Jun-08 00:00N 48°54' W 005°36'6258.3 230 / 271014.810.8 16.512.912.7
2017-Jun-07 23:58N 48°55' W 005°44'714.6
2017-Jun-07 23:31N 48°59' W 005°35'814.9
2017-Jun-07 23:00N 49°02' W 005°25'715.2
2017-Jun-07 22:30N 49°06' W 005°16'815.4
2017-Jun-07 22:01N 49°10' W 005°06'3114.7
2017-Jun-07 19:53N 49°26' W 004°24'1113.8
2017-Jun-07 19:06N 49°31' W 004°10'213.4
2017-Jun-07 18:56N 49°32' W 004°07'1712.8
2017-Jun-07 17:37N 49°41' W 003°44'312.5
2017-Jun-07 17:21N 49°42' W 003°40'412.3
2017-Jun-07 16:59N 49°44' W 003°33'612.3
2017-Jun-07 16:30N 49°48' W 003°26'612.6
2017-Jun-07 16:01N 49°51' W 003°18'713.1
2017-Jun-07 15:31N 49°55' W 003°10'713.6
2017-Jun-07 15:01N 49°58' W 003°00'1414.5
2017-Jun-07 14:00N 50°02' W 002°39'815.4
2017-Jun-07 13:30N 50°04' W 002°27'915.8
2017-Jun-07 12:56N 50°07' W 002°14'716.5
2017-Jun-07 12:30N 50°09' W 002°03'816.8
2017-Jun-07 12:00N 50°11' W 001°50'816.4
2017-Jun-07 11:30N 50°14' W 001°38'815.9
2017-Jun-07 11:00N 50°16' W 001°26'815.3
2017-Jun-07 10:30N 50°18' W 001°15'914.3
2017-Jun-07 09:54N 50°21' W 001°02'713.3
2017-Jun-07 09:22N 50°23' W 000°51'512.3
2017-Jun-07 08:59N 50°24' W 000°44'611.8
2017-Jun-07 08:30N 50°25' W 000°35'612.0
2017-Jun-07 08:00N 50°27' W 000°27'611.9
2017-Jun-07 07:30N 50°29' W 000°18'611.8
2017-Jun-07 07:00N 50°30' W 000°09'611.9
2017-Jun-07 06:30N 50°32' E 000°00'612.0
2017-Jun-07 06:00N 50°33' E 000°10'612.3
2017-Jun-07 05:30N 50°35' E 000°19'612.8
2017-Jun-07 05:00N 50°36' E 000°29'713.5
2017-Jun-07 04:30N 50°38' E 000°39'713.9
2017-Jun-07 04:00N 50°42' E 000°48'713.8
2017-Jun-07 03:30N 50°46' E 000°57'713.7
2017-Jun-07 03:00N 50°51' E 001°05'713.5
2017-Jun-07 02:30N 50°56' E 001°12'713.1
2017-Jun-07 02:00N 51°00' E 001°20'612.1
2017-Jun-07 01:30N 51°04' E 001°27'611.3
2017-Jun-07 01:00N 51°08' E 001°34'510.7
2017-Jun-07 00:30N 51°11' E 001°41'510.9
2017-Jun-07 00:00N 51°15' E 001°47'611.2
2017-Jun-06 23:30N 51°19' E 001°52'611.7
2017-Jun-06 23:01N 51°24' E 001°57'612.0
2017-Jun-06 22:30N 51°29' E 002°02'612.4
2017-Jun-06 22:00N 51°34' E 002°09'612.8
2017-Jun-06 21:30N 51°38' E 002°16'713.2
2017-Jun-06 21:00N 51°44' E 002°23'713.6
2017-Jun-06 20:30N 51°49' E 002°30'714.1
2017-Jun-06 19:59N 51°54' E 002°38'6312.8
2017-Jun-06 15:05N 52°44' E 003°39'110.8
2017-Jun-06 14:59N 52°45' E 003°40'510.6
2017-Jun-06 14:30N 52°49' E 003°46'1210.2
2017-Jun-06 13:20N 52°58' E 003°59'310.1
2017-Jun-06 13:01N 53°00' E 004°03'610.0
2017-Jun-06 12:27N 53°04' E 004°10'511.2
2017-Jun-06 11:58N 53°07' E 004°17'612.1
2017-Jun-06 11:27N 53°12' E 004°24'7313.6
2017-Jun-06 06:04N 53°48' E 006°11'114.2
2017-Jun-06 06:00N 53°48' E 006°12'714.0
2017-Jun-06 05:30N 53°50' E 006°24'1714.3
2017-Jun-06 04:18N 53°54' E 006°52'1615.1
2017-Jun-06 03:16N 53°58' E 007°18'415.5
2017-Jun-06 03:00N 53°59' E 007°25'815.4
2017-Jun-06 02:30N 53°59' E 007°38'  

Dump ship's entire track history